City's sites:

title views votes rating creation
?never been here 411 12 (3.08)  2010-02-07
?pastel negro 637 14 (2.50)  2010-02-07
?dizzy 300 8 (3.38)  2010-02-07
?two pictures from my desktop 890 16 (3.69)  2010-02-09
?broken clock realizes he is the last object left in the ... 455 10 (3.20)  2010-02-09
?heroes of old 613 19 (3.74)  2010-02-09
?mr. price 468 8 (3.25)  2010-02-09
?Music I Like - Part 1 651 10 (3.60)  2010-02-10
?Music I Like - Part 2 408 13 (3.54)  2010-02-10
?Music I Like - Part 3 568 13 (3.69)  2010-02-10
?Music I Like - Part 4 446 5 (3.20)  2010-02-10
?intense 581 9 (3.78)  2010-02-10
?oh SNAP 819 9 (3.22)  2010-02-10
?Music I Like - Part 5 577 9 (3.56)  2010-02-10
?SignlanguageTMND 425 14 (3.86)  2010-02-10
?lol internet (refresh) 656 6 (3.17)  2010-02-12
?Dumbeldore kills snape! 3,389 67 (4.03)  2010-02-12
?prairiedogeric10 tribute site 726 23 (3.96)  2010-02-13
?Legolewdite fan club 1,319 38 (3.87)  2010-02-13
?Connery retires 434 13 (3.85)  2010-02-13
?TOURNEY4: lol internet 588 7 (2.43)  2010-02-15
?Speed Deemon 1,077 23 (3.74)  2010-02-23
?Tribute: ASSCOCKredux 1,726 64 (3.91)  2010-02-23
?some light jazz with Robert De Niro 892 12 (3.50)  2010-02-23
?In What Language 1,479 34 (3.74)  2010-02-24
?go go go go go go go go go go go go go go go go ... 2,100 23 (3.74)  2010-02-24
?FEARCONDOM'S FAMILY Q U I L T 625 11 (3.55)  2010-02-24
?TEST 820 19 (3.84)  2010-02-26
?....someday, oh dream maker DUNANANANAN... 5,145 148 (3.96)  2010-02-28
?DOUGH FUNNIE HOMO DICKS 704 12 (3.58)  2010-03-01
?Using a concrete bricK 612 17 (3.82)  2010-03-01
?I had sex with a Kayan Tribe woman, little help plea... 1,040 11 (3.36)  2010-03-03
?Adventure 4 1,142 18 (3.61)  2010-03-03
?the standoff 490 9 (3.67)  2010-03-03
?alley children 556 11 (3.91)  2010-03-05
?Steven Seagal isn't impressed 9,923 181 (4.17)  2010-03-05
?Daunting Steps 232 7 (3.00)  2010-03-05
?Cruel and Unusual 6,265 163 (4.24)  2010-03-09
?DancehallTMND 484 10 (3.80)  2010-03-12
?FUCK OUT MY FACE 501 5 (2.60)  2010-03-18
?16, no dither 828 18 (3.94)  2010-03-20
?say hi to my girlfriend 1,063 16 (3.81)  2010-03-21
?TT 692 16 (3.88)  2010-03-23
?jimmm thinks about his next five 722 20 (3.80)  2010-03-24
?THE TELEKINETIC MAN 329 18 (3.50)  2010-03-25
?. 134 7 (2.71)  2010-03-26
?1! 386 17 (3.35)  2010-03-26
?Fake crocodile takes it to the limit one more time 622 9 (3.67)  2010-03-27
?croctheme 411 4 (3.25)  2010-03-27
?crocodile site 502 6 (3.50)  2010-03-27
?CROC MAKES A 187 LOOK EASY 214 6 (3.33)  2010-03-27
?New Croc SIte 181 5 (3.40)  2010-03-27
?L 443 19 (3.63)  2010-03-27
?crocodile sIte 364 10 (3.50)  2010-03-30
?Pleasant® 420 8 (3.38)  2010-03-30
?A Lovely Ride 310 13 (3.85)  2010-03-30
?It's glorious today 298 14 (3.64)  2010-04-01
?Na - Zu 444 10 (3.70)  2010-04-01
?WHO'NOWOWOWOW 427 5 (2.60)  2010-04-03
?part of your world 227 5 (3.00)  2010-04-04
?fff 187 4 (3.50)  2010-04-04
?FIve-star webiste 1,074 16 (1.94)  2010-04-04
?Captain Haddock 1,783 28 (3.86)  2010-04-04
?, 292 9 (3.33)  2010-04-05
?indnian 465 7 (2.71)  2010-04-05
?Ricky Manning tribute sIte will be Underway soon ! 255 3 (3.67)  2010-04-06
?Epic Domain Grab 241 6 (2.17)  2010-04-06
?retirement site 175 6 (2.83)  2010-04-06
?Paul newman doesn't drive a VAN 209 4 (3.00)  2010-04-06
?Vince McMan 398 7 (2.86)  2010-04-06
?LOL 342 5 (3.00)  2010-04-06
?wut 347 4 (2.75)  2010-04-06
?www.coachcarter.ytmnd.com 361 8 (1.88)  2010-04-06
?untitled 341 7 (2.14)  2010-04-09
?ExpirimennalTYTMND 416 8 (3.38)  2010-04-09
?jioejejejoijiojiojioejiejoijeoj 456 14 (3.79)  2010-04-09
?Jake Steele catches a fly ball 391 4 (3.50)  2010-04-10
?Jake Steele forgets the milk 374 3 (3.00)  2010-04-10
?Jake Steele just found his watch 361 4 (3.25)  2010-04-10
?Jake Steele grows up a bit 478 7 (2.86)  2010-04-10
?KRA2008 405 5 (2.60)  2010-04-10
?Fuck the world 828 26 (3.88)  2010-04-16
?a sexual guy 539 10 (2.30)  2010-05-12
?well 369 4 (4.25)  2010-09-03
?gay site you can watch while thinking about stuff 1,681 15 (4.07)  2010-09-13
?site dedicated to great warchief 1,328 12 (3.58)  2010-09-16
?38388 898 8 (3.88)  2010-09-16
?watching the world buzz by 554 4 (3.50)  2010-09-16
?what now 1,512 17 (3.94)  2010-09-16